sensor_id;sensor_type;location;lat;lon;timestamp;temperature;humidity
2062;DHT22;11070;51.336;12.340;2023-03-01T00:01:58;-1.10;99.90
2062;DHT22;11070;51.336;12.340;2023-03-01T00:04:24;-1.10;1.00
2062;DHT22;11070;51.336;12.340;2023-03-01T00:06:50;-1.20;1.00
2062;DHT22;11070;51.336;12.340;2023-03-01T00:09:17;-1.10;1.00
2062;DHT22;11070;51.336;12.340;2023-03-01T00:11:43;-1.10;1.00
2062;DHT22;11070;51.336;12.340;2023-03-01T00:14:08;-1.10;99.90
2062;DHT22;11070;51.336;12.340;2023-03-01T00:16:37;-1.00;1.00
2062;DHT22;11070;51.336;12.340;2023-03-01T00:19:17;-1.00;1.00
2062;DHT22;11070;51.336;12.340;2023-03-01T00:21:43;-1.00;99.90
2062;DHT22;11070;51.336;12.340;2023-03-01T00:24:09;-1.10;1.00
2062;DHT22;11070;51.336;12.340;2023-03-01T00:26:35;-1.10;1.00
2062;DHT22;11070;51.336;12.340;2023-03-01T00:29:02;-1.10;99.90
2062;DHT22;11070;51.336;12.340;2023-03-01T00:31:30;-1.10;1.00
2062;DHT22;11070;51.336;12.340;2023-03-01T00:33:58;-1.10;1.00
2062;DHT22;11070;51.336;12.340;2023-03-01T00:36:26;-1.10;1.00
2062;DHT22;11070;51.336;12.340;2023-03-01T00:38:53;-1.10;1.00
2062;DHT22;11070;51.336;12.340;2023-03-01T00:41:20;-1.10;99.90
2062;DHT22;11070;51.336;12.340;2023-03-01T00:43:48;-1.20;1.00
2062;DHT22;11070;51.336;12.340;2023-03-01T00:46:17;-1.20;99.90
2062;DHT22;11070;51.336;12.340;2023-03-01T00:48:43;-1.30;1.00
2062;DHT22;11070;51.336;12.340;2023-03-01T00:51:16;-1.30;1.00
2062;DHT22;11070;51.336;12.340;2023-03-01T00:53:43;-1.30;1.00
2062;DHT22;11070;51.336;12.340;2023-03-01T00:56:11;-1.30;1.00
2062;DHT22;11070;51.336;12.340;2023-03-01T00:58:38;-1.40;1.00
2062;DHT22;11070;51.336;12.340;2023-03-01T01:01:11;-1.30;1.00
2062;DHT22;11070;51.336;12.340;2023-03-01T01:03:50;-1.20;99.90
2062;DHT22;11070;51.336;12.340;2023-03-01T01:06:22;-1.20;99.90
2062;DHT22;11070;51.336;12.340;2023-03-01T01:08:49;-1.20;99.90
2062;DHT22;11070;51.336;12.340;2023-03-01T01:11:15;-1.30;55.00
2062;DHT22;11070;51.336;12.340;2023-03-01T01:13:43;-1.40;99.90
2062;DHT22;11070;51.336;12.340;2023-03-01T01:16:09;-1.50;1.00
2062;DHT22;11070;51.336;12.340;2023-03-01T01:18:35;-1.50;99.90
2062;DHT22;11070;51.336;12.340;2023-03-01T01:21:06;-1.50;99.90
2062;DHT22;11070;51.336;12.340;2023-03-01T01:23:32;-1.50;99.90
2062;DHT22;11070;51.336;12.340;2023-03-01T01:26:13;-1.60;99.90
2062;DHT22;11070;51.336;12.340;2023-03-01T01:28:39;-1.60;1.00
2062;DHT22;11070;51.336;12.340;2023-03-01T01:31:05;-1.70;1.00
2062;DHT22;11070;51.336;12.340;2023-03-01T01:33:31;-1.60;1.00
2062;DHT22;11070;51.336;12.340;2023-03-01T01:35:57;-1.60;1.00
2062;DHT22;11070;51.336;12.340;2023-03-01T01:38:26;-1.60;1.00
2062;DHT22;11070;51.336;12.340;2023-03-01T01:40:52;-1.60;99.90
2062;DHT22;11070;51.336;12.340;2023-03-01T01:43:29;-1.70;99.90
2062;DHT22;11070;51.336;12.340;2023-03-01T01:45:58;-1.70;99.90
2062;DHT22;11070;51.336;12.340;2023-03-01T01:48:32;-1.70;1.00
2062;DHT22;11070;51.336;12.340;2023-03-01T01:51:08;-1.70;1.00
2062;DHT22;11070;51.336;12.340;2023-03-01T01:53:35;-1.80;1.00
2062;DHT22;11070;51.336;12.340;2023-03-01T01:56:02;-1.90;95.20
2062;DHT22;11070;51.336;12.340;2023-03-01T01:58:29;-1.90;99.90
2062;DHT22;11070;51.336;12.340;2023-03-01T02:00:56;-2.00;99.90
2062;DHT22;11070;51.336;12.340;2023-03-01T02:03:30;-1.90;1.00
2062;DHT22;11070;51.336;12.340;2023-03-01T02:08:30;-1.80;1.00
2062;DHT22;11070;51.336;12.340;2023-03-01T02:10:58;-1.80;1.00
2062;DHT22;11070;51.336;12.340;2023-03-01T02:13:25;-1.90;1.00
2062;DHT22;11070;51.336;12.340;2023-03-01T02:15:51;-2.00;99.90
2062;DHT22;11070;51.336;12.340;2023-03-01T02:18:18;-2.00;99.90
2062;DHT22;11070;51.336;12.340;2023-03-01T02:21:03;-1.90;99.90
2062;DHT22;11070;51.336;12.340;2023-03-01T02:23:31;-1.90;99.90
2062;DHT22;11070;51.336;12.340;2023-03-01T02:28:46;-2.00;99.90
2062;DHT22;11070;51.336;12.340;2023-03-01T02:31:19;-2.10;99.90
2062;DHT22;11070;51.336;12.340;2023-03-01T02:34:05;-2.10;99.90
2062;DHT22;11070;51.336;12.340;2023-03-01T02:36:38;-2.20;1.00
2062;DHT22;11070;51.336;12.340;2023-03-01T02:39:07;-2.20;1.00
2062;DHT22;11070;51.336;12.340;2023-03-01T02:41:41;-2.20;1.00
2062;DHT22;11070;51.336;12.340;2023-03-01T02:44:07;-2.20;1.00
2062;DHT22;11070;51.336;12.340;2023-03-01T02:46:34;-2.20;1.00
2062;DHT22;11070;51.336;12.340;2023-03-01T02:49:25;-2.20;1.00
2062;DHT22;11070;51.336;12.340;2023-03-01T02:57:15;-2.30;1.00
2062;DHT22;11070;51.336;12.340;2023-03-01T02:59:42;-2.40;28.20
2062;DHT22;11070;51.336;12.340;2023-03-01T03:02:20;-2.40;99.90
2062;DHT22;11070;51.336;12.340;2023-03-01T03:05:14;-2.40;99.90
2062;DHT22;11070;51.336;12.340;2023-03-01T03:07:43;-2.40;99.90
2062;DHT22;11070;51.336;12.340;2023-03-01T03:10:19;-2.50;99.90
2062;DHT22;11070;51.336;12.340;2023-03-01T03:12:52;-2.40;99.90
2062;DHT22;11070;51.336;12.340;2023-03-01T03:15:18;-2.40;99.90
2062;DHT22;11070;51.336;12.340;2023-03-01T03:17:46;-2.50;99.90
2062;DHT22;11070;51.336;12.340;2023-03-01T03:20:14;-2.50;99.90
2062;DHT22;11070;51.336;12.340;2023-03-01T03:22:45;-2.50;99.90
2062;DHT22;11070;51.336;12.340;2023-03-01T03:25:10;-2.50;99.90
2062;DHT22;11070;51.336;12.340;2023-03-01T03:27:40;-2.50;99.90
2062;DHT22;11070;51.336;12.340;2023-03-01T03:30:08;-2.50;99.90
2062;DHT22;11070;51.336;12.340;2023-03-01T03:32:40;-2.60;99.90
2062;DHT22;11070;51.336;12.340;2023-03-01T03:35:08;-2.50;99.90
2062;DHT22;11070;51.336;12.340;2023-03-01T03:37:39;-2.40;99.90
2062;DHT22;11070;51.336;12.340;2023-03-01T03:40:24;-2.40;99.90
2062;DHT22;11070;51.336;12.340;2023-03-01T03:42:50;-2.50;99.90
2062;DHT22;11070;51.336;12.340;2023-03-01T03:45:16;-2.50;99.90
2062;DHT22;11070;51.336;12.340;2023-03-01T03:47:42;-2.60;99.90
2062;DHT22;11070;51.336;12.340;2023-03-01T03:50:13;-2.60;99.90
2062;DHT22;11070;51.336;12.340;2023-03-01T03:52:39;-2.70;99.90
2062;DHT22;11070;51.336;12.340;2023-03-01T03:55:07;-2.80;99.90
2062;DHT22;11070;51.336;12.340;2023-03-01T03:57:40;-2.80;99.90
2062;DHT22;11070;51.336;12.340;2023-03-01T04:00:10;-2.80;1.00
2062;DHT22;11070;51.336;12.340;2023-03-01T04:02:42;-2.80;1.00
2062;DHT22;11070;51.336;12.340;2023-03-01T04:05:10;-2.90;1.00
2062;DHT22;11070;51.336;12.340;2023-03-01T04:07:36;-2.90;1.00
2062;DHT22;11070;51.336;12.340;2023-03-01T04:10:04;-2.80;1.00
2062;DHT22;11070;51.336;12.340;2023-03-01T04:12:32;-2.80;1.00
2062;DHT22;11070;51.336;12.340;2023-03-01T04:15:02;-2.80;1.00
2062;DHT22;11070;51.336;12.340;2023-03-01T04:17:40;-2.70;1.00
2062;DHT22;11070;51.336;12.340;2023-03-01T04:20:10;-2.70;1.00
2062;DHT22;11070;51.336;12.340;2023-03-01T04:22:37;-2.60;1.00
2062;DHT22;11070;51.336;12.340;2023-03-01T04:25:03;-2.60;1.00
2062;DHT22;11070;51.336;12.340;2023-03-01T04:27:32;-2.60;1.00
2062;DHT22;11070;51.336;12.340;2023-03-01T04:29:58;-2.70;1.00
2062;DHT22;11070;51.336;12.340;2023-03-01T04:32:24;-2.70;1.00
2062;DHT22;11070;51.336;12.340;2023-03-01T04:34:49;-2.80;1.00
2062;DHT22;11070;51.336;12.340;2023-03-01T04:37:15;-2.80;1.00
2062;DHT22;11070;51.336;12.340;2023-03-01T04:39:41;-2.80;1.00
2062;DHT22;11070;51.336;12.340;2023-03-01T04:42:20;-2.80;1.00
2062;DHT22;11070;51.336;12.340;2023-03-01T04:44:46;-2.80;1.00
2062;DHT22;11070;51.336;12.340;2023-03-01T04:47:12;-2.80;1.00
2062;DHT22;11070;51.336;12.340;2023-03-01T04:49:37;-2.80;1.00
2062;DHT22;11070;51.336;12.340;2023-03-01T04:52:04;-2.80;1.00
2062;DHT22;11070;51.336;12.340;2023-03-01T04:54:32;-2.80;1.00
2062;DHT22;11070;51.336;12.340;2023-03-01T04:56:58;-2.90;1.00
2062;DHT22;11070;51.336;12.340;2023-03-01T04:59:24;-2.90;1.00
2062;DHT22;11070;51.336;12.340;2023-03-01T05:01:51;-2.90;1.00
2062;DHT22;11070;51.336;12.340;2023-03-01T05:04:17;-2.90;1.00
2062;DHT22;11070;51.336;12.340;2023-03-01T05:06:43;-2.90;1.00
2062;DHT22;11070;51.336;12.340;2023-03-01T05:09:09;-3.00;1.00
2062;DHT22;11070;51.336;12.340;2023-03-01T05:11:37;-3.00;1.00
2062;DHT22;11070;51.336;12.340;2023-03-01T05:14:04;-3.00;1.00
2062;DHT22;11070;51.336;12.340;2023-03-01T05:16:30;-2.90;1.00
2062;DHT22;11070;51.336;12.340;2023-03-01T05:18:57;-2.90;1.00
2062;DHT22;11070;51.336;12.340;2023-03-01T05:21:23;-2.80;1.00
2062;DHT22;11070;51.336;12.340;2023-03-01T05:23:49;-2.90;1.00
2062;DHT22;11070;51.336;12.340;2023-03-01T05:26:17;-2.90;1.00
2062;DHT22;11070;51.336;12.340;2023-03-01T05:28:44;-2.90;1.00
2062;DHT22;11070;51.336;12.340;2023-03-01T05:31:09;-2.90;1.00
2062;DHT22;11070;51.336;12.340;2023-03-01T05:33:36;-2.90;1.00
2062;DHT22;11070;51.336;12.340;2023-03-01T05:36:04;-3.00;1.00
2062;DHT22;11070;51.336;12.340;2023-03-01T05:38:30;-2.90;1.00
2062;DHT22;11070;51.336;12.340;2023-03-01T05:40:56;-2.90;1.00
2062;DHT22;11070;51.336;12.340;2023-03-01T05:43:22;-2.90;1.00
2062;DHT22;11070;51.336;12.340;2023-03-01T05:45:47;-3.00;1.00
2062;DHT22;11070;51.336;12.340;2023-03-01T05:48:13;-3.00;1.00
2062;DHT22;11070;51.336;12.340;2023-03-01T05:50:43;-3.00;1.00
2062;DHT22;11070;51.336;12.340;2023-03-01T05:53:19;-3.00;1.00
2062;DHT22;11070;51.336;12.340;2023-03-01T05:55:47;-3.00;1.00
2062;DHT22;11070;51.336;12.340;2023-03-01T05:58:19;-3.00;1.00
2062;DHT22;11070;51.336;12.340;2023-03-01T06:00:46;-2.90;1.00
2062;DHT22;11070;51.336;12.340;2023-03-01T06:03:15;-2.90;1.00
2062;DHT22;11070;51.336;12.340;2023-03-01T06:05:41;-2.90;1.00
2062;DHT22;11070;51.336;12.340;2023-03-01T06:08:09;-2.90;1.00
2062;DHT22;11070;51.336;12.340;2023-03-01T06:10:38;-2.90;1.00
2062;DHT22;11070;51.336;12.340;2023-03-01T06:13:04;-2.80;1.00
2062;DHT22;11070;51.336;12.340;2023-03-01T06:15:29;-2.70;1.00
2062;DHT22;11070;51.336;12.340;2023-03-01T06:17:55;-2.40;1.00
2062;DHT22;11070;51.336;12.340;2023-03-01T06:20:26;-2.00;99.90
2062;DHT22;11070;51.336;12.340;2023-03-01T06:22:52;-1.60;1.00
2062;DHT22;11070;51.336;12.340;2023-03-01T06:25:20;-1.20;1.00
2062;DHT22;11070;51.336;12.340;2023-03-01T06:27:47;-0.70;99.90
2062;DHT22;11070;51.336;12.340;2023-03-01T06:30:16;-0.20;1.00
2062;DHT22;11070;51.336;12.340;2023-03-01T06:32:42;0.30;99.90
2062;DHT22;11070;51.336;12.340;2023-03-01T06:35:10;0.70;1.00
2062;DHT22;11070;51.336;12.340;2023-03-01T06:37:36;1.20;99.90
2062;DHT22;11070;51.336;12.340;2023-03-01T06:40:06;1.70;1.00
2062;DHT22;11070;51.336;12.340;2023-03-01T06:42:37;2.30;1.00
2062;DHT22;11070;51.336;12.340;2023-03-01T06:45:05;2.80;1.00
2062;DHT22;11070;51.336;12.340;2023-03-01T06:47:31;3.30;1.00
2062;DHT22;11070;51.336;12.340;2023-03-01T06:49:59;3.90;1.00
2062;DHT22;11070;51.336;12.340;2023-03-01T06:52:24;4.40;99.90
2062;DHT22;11070;51.336;12.340;2023-03-01T06:54:50;4.80;99.90
2062;DHT22;11070;51.336;12.340;2023-03-01T06:57:16;5.10;99.90
2062;DHT22;11070;51.336;12.340;2023-03-01T06:59:42;5.30;99.90
2062;DHT22;11070;51.336;12.340;2023-03-01T07:02:10;5.60;99.90
2062;DHT22;11070;51.336;12.340;2023-03-01T07:04:37;5.90;99.90
2062;DHT22;11070;51.336;12.340;2023-03-01T07:07:03;6.40;99.90
2062;DHT22;11070;51.336;12.340;2023-03-01T07:09:29;6.90;99.90
2062;DHT22;11070;51.336;12.340;2023-03-01T07:11:54;7.30;99.90
2062;DHT22;11070;51.336;12.340;2023-03-01T07:14:21;7.40;99.90
2062;DHT22;11070;51.336;12.340;2023-03-01T07:16:47;7.80;99.90
2062;DHT22;11070;51.336;12.340;2023-03-01T07:19:13;8.30;99.90
2062;DHT22;11070;51.336;12.340;2023-03-01T07:21:38;8.50;99.90
2062;DHT22;11070;51.336;12.340;2023-03-01T07:24:09;8.70;99.90
2062;DHT22;11070;51.336;12.340;2023-03-01T07:26:34;9.10;99.90
2062;DHT22;11070;51.336;12.340;2023-03-01T07:29:01;9.50;99.90
2062;DHT22;11070;51.336;12.340;2023-03-01T07:31:27;9.90;99.90
2062;DHT22;11070;51.336;12.340;2023-03-01T07:33:55;10.40;99.90
2062;DHT22;11070;51.336;12.340;2023-03-01T07:36:21;10.90;99.90
2062;DHT22;11070;51.336;12.340;2023-03-01T07:38:47;11.30;99.90
2062;DHT22;11070;51.336;12.340;2023-03-01T07:41:13;11.50;99.90
2062;DHT22;11070;51.336;12.340;2023-03-01T07:43:40;11.90;99.90
2062;DHT22;11070;51.336;12.340;2023-03-01T07:46:05;12.50;99.90
2062;DHT22;11070;51.336;12.340;2023-03-01T07:48:32;13.00;99.90
2062;DHT22;11070;51.336;12.340;2023-03-01T07:51:00;13.20;99.90
2062;DHT22;11070;51.336;12.340;2023-03-01T07:53:25;14.40;99.90
2062;DHT22;11070;51.336;12.340;2023-03-01T07:56:04;14.50;99.90
2062;DHT22;11070;51.336;12.340;2023-03-01T07:58:30;14.80;99.90
2062;DHT22;11070;51.336;12.340;2023-03-01T08:00:56;14.90;99.90
2062;DHT22;11070;51.336;12.340;2023-03-01T08:03:21;15.40;99.90
2062;DHT22;11070;51.336;12.340;2023-03-01T08:05:47;16.40;99.90
2062;DHT22;11070;51.336;12.340;2023-03-01T08:08:13;17.20;99.90
2062;DHT22;11070;51.336;12.340;2023-03-01T08:10:38;17.40;99.90
2062;DHT22;11070;51.336;12.340;2023-03-01T08:13:04;17.80;99.90
2062;DHT22;11070;51.336;12.340;2023-03-01T08:15:30;18.40;99.90
2062;DHT22;11070;51.336;12.340;2023-03-01T08:17:55;18.70;99.90
2062;DHT22;11070;51.336;12.340;2023-03-01T08:20:21;18.80;99.90
2062;DHT22;11070;51.336;12.340;2023-03-01T08:22:46;18.30;99.90
2062;DHT22;11070;51.336;12.340;2023-03-01T08:25:12;18.10;99.90
2062;DHT22;11070;51.336;12.340;2023-03-01T08:27:38;18.10;99.90
2062;DHT22;11070;51.336;12.340;2023-03-01T08:30:04;18.20;99.90
2062;DHT22;11070;51.336;12.340;2023-03-01T08:32:32;17.50;99.90
2062;DHT22;11070;51.336;12.340;2023-03-01T08:35:00;17.80;99.90
2062;DHT22;11070;51.336;12.340;2023-03-01T08:37:26;18.30;99.90
2062;DHT22;11070;51.336;12.340;2023-03-01T08:39:51;18.60;99.90
2062;DHT22;11070;51.336;12.340;2023-03-01T08:42:17;18.70;99.90
2062;DHT22;11070;51.336;12.340;2023-03-01T08:44:42;18.80;99.90
2062;DHT22;11070;51.336;12.340;2023-03-01T08:47:08;19.70;99.90
2062;DHT22;11070;51.336;12.340;2023-03-01T08:49:34;20.10;99.90
2062;DHT22;11070;51.336;12.340;2023-03-01T08:51:59;20.00;99.90
2062;DHT22;11070;51.336;12.340;2023-03-01T08:54:25;20.00;99.90
2062;DHT22;11070;51.336;12.340;2023-03-01T08:56:51;20.20;99.90
2062;DHT22;11070;51.336;12.340;2023-03-01T08:59:18;20.60;99.90
2062;DHT22;11070;51.336;12.340;2023-03-01T09:01:43;19.70;99.90
2062;DHT22;11070;51.336;12.340;2023-03-01T09:04:10;19.30;99.90
2062;DHT22;11070;51.336;12.340;2023-03-01T09:06:36;19.20;99.90
2062;DHT22;11070;51.336;12.340;2023-03-01T09:09:04;19.10;99.90
2062;DHT22;11070;51.336;12.340;2023-03-01T09:11:30;19.10;99.90
2062;DHT22;11070;51.336;12.340;2023-03-01T09:13:56;19.50;99.90
2062;DHT22;11070;51.336;12.340;2023-03-01T09:16:23;19.40;99.90
2062;DHT22;11070;51.336;12.340;2023-03-01T09:18:53;19.30;99.90
2062;DHT22;11070;51.336;12.340;2023-03-01T09:21:20;20.10;99.90
2062;DHT22;11070;51.336;12.340;2023-03-01T09:23:47;19.40;99.90
2062;DHT22;11070;51.336;12.340;2023-03-01T09:26:16;19.20;99.90
2062;DHT22;11070;51.336;12.340;2023-03-01T09:28:43;19.80;99.90
2062;DHT22;11070;51.336;12.340;2023-03-01T09:31:09;20.30;99.90
2062;DHT22;11070;51.336;12.340;2023-03-01T09:33:38;20.30;99.90
2062;DHT22;11070;51.336;12.340;2023-03-01T09:36:06;18.90;99.90
2062;DHT22;11070;51.336;12.340;2023-03-01T09:38:33;17.90;99.90
2062;DHT22;11070;51.336;12.340;2023-03-01T09:41:00;18.20;99.90
2062;DHT22;11070;51.336;12.340;2023-03-01T09:46:09;18.40;99.90
2062;DHT22;11070;51.336;12.340;2023-03-01T09:48:57;18.10;99.90
2062;DHT22;11070;51.336;12.340;2023-03-01T09:51:35;18.50;99.90
2062;DHT22;11070;51.336;12.340;2023-03-01T09:54:03;18.20;99.90
2062;DHT22;11070;51.336;12.340;2023-03-01T09:59:31;17.70;99.90
2062;DHT22;11070;51.336;12.340;2023-03-01T10:05:19;18.00;99.90
2062;DHT22;11070;51.336;12.340;2023-03-01T10:10:38;17.90;99.90
2062;DHT22;11070;51.336;12.340;2023-03-01T10:13:19;17.80;99.90
2062;DHT22;11070;51.336;12.340;2023-03-01T10:16:34;17.60;99.90
2062;DHT22;11070;51.336;12.340;2023-03-01T10:18:58;17.20;99.90
2062;DHT22;11070;51.336;12.340;2023-03-01T10:21:26;17.30;99.90
2062;DHT22;11070;51.336;12.340;2023-03-01T10:23:53;17.70;99.90
2062;DHT22;11070;51.336;12.340;2023-03-01T10:26:53;18.20;99.90
2062;DHT22;11070;51.336;12.340;2023-03-01T10:32:26;19.00;99.90
2062;DHT22;11070;51.336;12.340;2023-03-01T10:34:52;20.70;99.90
2062;DHT22;11070;51.336;12.340;2023-03-01T10:37:20;21.30;99.90
2062;DHT22;11070;51.336;12.340;2023-03-01T10:40:03;22.10;99.90
2062;DHT22;11070;51.336;12.340;2023-03-01T10:42:38;21.70;99.90
2062;DHT22;11070;51.336;12.340;2023-03-01T10:45:23;20.40;99.90
2062;DHT22;11070;51.336;12.340;2023-03-01T10:50:36;21.50;99.90
2062;DHT22;11070;51.336;12.340;2023-03-01T10:53:04;22.50;99.90
2062;DHT22;11070;51.336;12.340;2023-03-01T10:55:34;22.40;99.90
2062;DHT22;11070;51.336;12.340;2023-03-01T10:58:27;22.20;99.90
2062;DHT22;11070;51.336;12.340;2023-03-01T11:01:01;21.60;99.90
2062;DHT22;11070;51.336;12.340;2023-03-01T11:03:34;21.70;99.90
2062;DHT22;11070;51.336;12.340;2023-03-01T11:06:12;20.50;99.90
2062;DHT22;11070;51.336;12.340;2023-03-01T11:08:48;19.80;99.90
2062;DHT22;11070;51.336;12.340;2023-03-01T11:11:34;19.80;99.90
2062;DHT22;11070;51.336;12.340;2023-03-01T11:14:06;19.90;99.90
2062;DHT22;11070;51.336;12.340;2023-03-01T11:21:55;19.70;99.90
2062;DHT22;11070;51.336;12.340;2023-03-01T11:24:43;20.20;99.90
2062;DHT22;11070;51.336;12.340;2023-03-01T11:27:18;20.80;99.90
2062;DHT22;11070;51.336;12.340;2023-03-01T11:29:51;20.40;99.90
2062;DHT22;11070;51.336;12.340;2023-03-01T11:32:19;20.50;99.90
2062;DHT22;11070;51.336;12.340;2023-03-01T11:35:25;20.40;99.90
2062;DHT22;11070;51.336;12.340;2023-03-01T11:40:27;20.80;99.90
2062;DHT22;11070;51.336;12.340;2023-03-01T11:54:06;20.10;99.90
2062;DHT22;11070;51.336;12.340;2023-03-01T11:56:39;21.10;99.90
2062;DHT22;11070;51.336;12.340;2023-03-01T12:07:59;20.10;99.90
2062;DHT22;11070;51.336;12.340;2023-03-01T12:10:28;20.00;99.90
2062;DHT22;11070;51.336;12.340;2023-03-01T12:29:34;17.20;99.90
2062;DHT22;11070;51.336;12.340;2023-03-01T12:32:25;18.60;99.90
2062;DHT22;11070;51.336;12.340;2023-03-01T12:35:31;19.50;99.90
2062;DHT22;11070;51.336;12.340;2023-03-01T12:38:14;19.70;99.90
2062;DHT22;11070;51.336;12.340;2023-03-01T12:41:19;19.40;99.90
2062;DHT22;11070;51.336;12.340;2023-03-01T12:49:33;17.60;99.90
2062;DHT22;11070;51.336;12.340;2023-03-01T12:52:03;18.00;99.90
2062;DHT22;11070;51.336;12.340;2023-03-01T12:54:36;18.30;99.90
2062;DHT22;11070;51.336;12.340;2023-03-01T12:57:22;17.70;99.90
2062;DHT22;11070;51.336;12.340;2023-03-01T13:02:38;18.70;99.90
2062;DHT22;11070;51.336;12.340;2023-03-01T13:08:18;18.40;99.90
2062;DHT22;11070;51.336;12.340;2023-03-01T13:11:03;18.20;99.90
2062;DHT22;11070;51.336;12.340;2023-03-01T13:13:30;19.20;99.90
2062;DHT22;11070;51.336;12.340;2023-03-01T13:15:56;19.40;99.90
2062;DHT22;11070;51.336;12.340;2023-03-01T13:20:59;19.20;99.90
2062;DHT22;11070;51.336;12.340;2023-03-01T13:23:34;19.00;99.90
2062;DHT22;11070;51.336;12.340;2023-03-01T13:28:44;18.20;99.90
2062;DHT22;11070;51.336;12.340;2023-03-01T13:33:56;17.50;99.90
2062;DHT22;11070;51.336;12.340;2023-03-01T13:39:02;17.90;99.90
2062;DHT22;11070;51.336;12.340;2023-03-01T13:49:23;17.30;99.90
2062;DHT22;11070;51.336;12.340;2023-03-01T13:51:51;17.40;99.90
2062;DHT22;11070;51.336;12.340;2023-03-01T13:54:31;17.30;99.90
2062;DHT22;11070;51.336;12.340;2023-03-01T13:56:58;17.80;99.90
2062;DHT22;11070;51.336;12.340;2023-03-01T13:59:25;19.20;99.90
2062;DHT22;11070;51.336;12.340;2023-03-01T14:01:57;19.40;99.90
2062;DHT22;11070;51.336;12.340;2023-03-01T14:04:31;18.70;99.90
2062;DHT22;11070;51.336;12.340;2023-03-01T14:07:20;18.00;99.90
2062;DHT22;11070;51.336;12.340;2023-03-01T14:09:50;17.60;99.90
2062;DHT22;11070;51.336;12.340;2023-03-01T14:12:39;17.00;99.90
2062;DHT22;11070;51.336;12.340;2023-03-01T14:18:04;17.60;99.90
2062;DHT22;11070;51.336;12.340;2023-03-01T14:20:37;17.80;99.90
2062;DHT22;11070;51.336;12.340;2023-03-01T14:23:11;18.10;99.90
2062;DHT22;11070;51.336;12.340;2023-03-01T14:25:38;18.70;99.90
2062;DHT22;11070;51.336;12.340;2023-03-01T14:28:20;18.50;99.90
2062;DHT22;11070;51.336;12.340;2023-03-01T14:30:52;17.70;99.90
2062;DHT22;11070;51.336;12.340;2023-03-01T14:33:44;17.30;99.90
2062;DHT22;11070;51.336;12.340;2023-03-01T14:36:26;16.20;99.90
2062;DHT22;11070;51.336;12.340;2023-03-01T14:38:52;16.20;99.90
2062;DHT22;11070;51.336;12.340;2023-03-01T14:41:22;15.70;99.90
2062;DHT22;11070;51.336;12.340;2023-03-01T14:44:05;15.80;99.90
2062;DHT22;11070;51.336;12.340;2023-03-01T14:46:40;15.90;99.90
2062;DHT22;11070;51.336;12.340;2023-03-01T14:49:16;15.30;99.90
2062;DHT22;11070;51.336;12.340;2023-03-01T14:52:02;14.90;99.90
2062;DHT22;11070;51.336;12.340;2023-03-01T14:54:41;14.90;99.90
2062;DHT22;11070;51.336;12.340;2023-03-01T14:59:41;14.50;99.90
2062;DHT22;11070;51.336;12.340;2023-03-01T15:02:26;14.40;99.90
2062;DHT22;11070;51.336;12.340;2023-03-01T15:05:00;13.90;99.90
2062;DHT22;11070;51.336;12.340;2023-03-01T15:07:30;13.50;99.90
2062;DHT22;11070;51.336;12.340;2023-03-01T15:09:58;13.40;99.90
2062;DHT22;11070;51.336;12.340;2023-03-01T15:14:53;14.10;99.90
2062;DHT22;11070;51.336;12.340;2023-03-01T15:19:46;13.90;99.90
2062;DHT22;11070;51.336;12.340;2023-03-01T15:22:15;14.00;99.90
2062;DHT22;11070;51.336;12.340;2023-03-01T15:24:41;14.30;99.90
2062;DHT22;11070;51.336;12.340;2023-03-01T15:27:18;14.30;99.90
2062;DHT22;11070;51.336;12.340;2023-03-01T15:29:57;13.70;99.90
2062;DHT22;11070;51.336;12.340;2023-03-01T15:32:29;13.30;99.90
2062;DHT22;11070;51.336;12.340;2023-03-01T15:34:59;12.90;99.90
2062;DHT22;11070;51.336;12.340;2023-03-01T15:37:47;12.70;99.90
2062;DHT22;11070;51.336;12.340;2023-03-01T15:40:27;12.30;99.90
2062;DHT22;11070;51.336;12.340;2023-03-01T15:43:08;12.20;99.90
2062;DHT22;11070;51.336;12.340;2023-03-01T15:45:58;12.20;99.90
2062;DHT22;11070;51.336;12.340;2023-03-01T15:48:23;12.10;99.90
2062;DHT22;11070;51.336;12.340;2023-03-01T15:50:58;12.10;99.90
2062;DHT22;11070;51.336;12.340;2023-03-01T15:53:26;12.50;99.90
2062;DHT22;11070;51.336;12.340;2023-03-01T15:55:53;12.70;99.90
2062;DHT22;11070;51.336;12.340;2023-03-01T15:58:23;12.50;99.90
2062;DHT22;11070;51.336;12.340;2023-03-01T16:00:49;11.90;99.90
2062;DHT22;11070;51.336;12.340;2023-03-01T16:03:21;11.50;99.90
2062;DHT22;11070;51.336;12.340;2023-03-01T16:05:49;11.10;99.90
2062;DHT22;11070;51.336;12.340;2023-03-01T16:08:15;10.90;99.90
2062;DHT22;11070;51.336;12.340;2023-03-01T16:10:41;10.60;99.90
2062;DHT22;11070;51.336;12.340;2023-03-01T16:13:11;10.10;99.90
2062;DHT22;11070;51.336;12.340;2023-03-01T16:15:37;9.70;99.90
2062;DHT22;11070;51.336;12.340;2023-03-01T16:18:04;9.50;99.90
2062;DHT22;11070;51.336;12.340;2023-03-01T16:20:32;9.10;99.90
2062;DHT22;11070;51.336;12.340;2023-03-01T16:22:58;8.60;99.90
2062;DHT22;11070;51.336;12.340;2023-03-01T16:25:25;8.30;99.90
2062;DHT22;11070;51.336;12.340;2023-03-01T16:27:51;8.00;99.90
2062;DHT22;11070;51.336;12.340;2023-03-01T16:30:19;7.40;99.90
2062;DHT22;11070;51.336;12.340;2023-03-01T16:32:47;7.30;99.90
2062;DHT22;11070;51.336;12.340;2023-03-01T16:37:41;6.90;99.90
2062;DHT22;11070;51.336;12.340;2023-03-01T16:40:34;6.80;99.90
2062;DHT22;11070;51.336;12.340;2023-03-01T16:42:59;6.70;99.90
2062;DHT22;11070;51.336;12.340;2023-03-01T16:45:28;6.50;99.90
2062;DHT22;11070;51.336;12.340;2023-03-01T16:47:57;6.40;99.90
2062;DHT22;11070;51.336;12.340;2023-03-01T16:50:24;6.30;99.90
2062;DHT22;11070;51.336;12.340;2023-03-01T16:52:51;6.20;99.90
2062;DHT22;11070;51.336;12.340;2023-03-01T16:55:16;6.10;99.90
2062;DHT22;11070;51.336;12.340;2023-03-01T16:57:42;6.00;99.90
2062;DHT22;11070;51.336;12.340;2023-03-01T17:00:10;6.00;99.90
2062;DHT22;11070;51.336;12.340;2023-03-01T17:02:38;5.80;99.90
2062;DHT22;11070;51.336;12.340;2023-03-01T17:05:04;5.80;99.90
2062;DHT22;11070;51.336;12.340;2023-03-01T17:07:31;5.80;99.90
2062;DHT22;11070;51.336;12.340;2023-03-01T17:09:59;5.70;99.90
2062;DHT22;11070;51.336;12.340;2023-03-01T17:12:25;5.60;99.90
2062;DHT22;11070;51.336;12.340;2023-03-01T17:14:51;5.50;99.90
2062;DHT22;11070;51.336;12.340;2023-03-01T17:17:16;5.40;99.90
2062;DHT22;11070;51.336;12.340;2023-03-01T17:19:42;5.30;99.90
2062;DHT22;11070;51.336;12.340;2023-03-01T17:22:10;5.30;99.90
2062;DHT22;11070;51.336;12.340;2023-03-01T17:24:37;5.20;99.90
2062;DHT22;11070;51.336;12.340;2023-03-01T17:27:03;5.20;99.90
2062;DHT22;11070;51.336;12.340;2023-03-01T17:29:29;5.20;99.90
2062;DHT22;11070;51.336;12.340;2023-03-01T17:31:55;5.10;99.90
2062;DHT22;11070;51.336;12.340;2023-03-01T17:34:22;5.00;99.90
2062;DHT22;11070;51.336;12.340;2023-03-01T17:36:49;5.00;99.90
2062;DHT22;11070;51.336;12.340;2023-03-01T17:39:16;4.90;99.90
2062;DHT22;11070;51.336;12.340;2023-03-01T17:41:42;4.80;99.90
2062;DHT22;11070;51.336;12.340;2023-03-01T17:44:08;4.80;99.90
2062;DHT22;11070;51.336;12.340;2023-03-01T17:46:34;4.70;99.90
2062;DHT22;11070;51.336;12.340;2023-03-01T17:49:00;4.70;99.90
2062;DHT22;11070;51.336;12.340;2023-03-01T17:51:26;4.60;99.90